sensor_id;sensor_type;location;lat;lon;timestamp;P1;durP1;ratioP1;P2;durP2;ratioP2
7410;SDS011;3747;48.628;9.058;2023-09-30T00:01:10;5.23;;;3.10;;
7410;SDS011;3747;48.628;9.058;2023-09-30T00:03:41;8.47;;;3.47;;
7410;SDS011;3747;48.628;9.058;2023-09-30T00:06:07;6.00;;;3.03;;
7410;SDS011;3747;48.628;9.058;2023-09-30T00:08:34;6.13;;;3.13;;
7410;SDS011;3747;48.628;9.058;2023-09-30T00:11:01;5.33;;;3.03;;
7410;SDS011;3747;48.628;9.058;2023-09-30T00:13:29;6.67;;;2.90;;
7410;SDS011;3747;48.628;9.058;2023-09-30T00:15:56;5.90;;;2.80;;
7410;SDS011;3747;48.628;9.058;2023-09-30T00:18:23;6.23;;;2.63;;
7410;SDS011;3747;48.628;9.058;2023-09-30T00:20:51;6.40;;;3.20;;
7410;SDS011;3747;48.628;9.058;2023-09-30T00:23:18;4.37;;;2.43;;
7410;SDS011;3747;48.628;9.058;2023-09-30T00:25:46;6.30;;;2.80;;
7410;SDS011;3747;48.628;9.058;2023-09-30T00:28:13;5.40;;;2.90;;
7410;SDS011;3747;48.628;9.058;2023-09-30T00:30:40;8.50;;;2.87;;
7410;SDS011;3747;48.628;9.058;2023-09-30T00:33:07;6.03;;;3.27;;
7410;SDS011;3747;48.628;9.058;2023-09-30T00:35:34;6.10;;;2.73;;
7410;SDS011;3747;48.628;9.058;2023-09-30T00:38:03;6.80;;;2.93;;
7410;SDS011;3747;48.628;9.058;2023-09-30T00:40:29;5.13;;;2.87;;
7410;SDS011;3747;48.628;9.058;2023-09-30T00:42:56;6.83;;;3.10;;
7410;SDS011;3747;48.628;9.058;2023-09-30T00:45:23;5.60;;;3.07;;
7410;SDS011;3747;48.628;9.058;2023-09-30T00:47:50;4.40;;;2.90;;
7410;SDS011;3747;48.628;9.058;2023-09-30T00:50:17;6.60;;;2.60;;
7410;SDS011;3747;48.628;9.058;2023-09-30T00:52:46;4.83;;;2.90;;
7410;SDS011;3747;48.628;9.058;2023-09-30T00:55:17;5.07;;;3.10;;
7410;SDS011;3747;48.628;9.058;2023-09-30T00:57:44;7.03;;;2.83;;
7410;SDS011;3747;48.628;9.058;2023-09-30T01:00:11;6.70;;;3.03;;
7410;SDS011;3747;48.628;9.058;2023-09-30T01:02:38;5.53;;;3.00;;
7410;SDS011;3747;48.628;9.058;2023-09-30T01:05:06;6.13;;;2.87;;
7410;SDS011;3747;48.628;9.058;2023-09-30T01:07:33;5.13;;;3.07;;
7410;SDS011;3747;48.628;9.058;2023-09-30T01:10:00;4.83;;;2.50;;
7410;SDS011;3747;48.628;9.058;2023-09-30T01:12:28;6.47;;;2.83;;
7410;SDS011;3747;48.628;9.058;2023-09-30T01:14:57;5.43;;;3.17;;
7410;SDS011;3747;48.628;9.058;2023-09-30T01:17:23;5.67;;;2.83;;
7410;SDS011;3747;48.628;9.058;2023-09-30T01:19:50;5.47;;;2.47;;
7410;SDS011;3747;48.628;9.058;2023-09-30T01:22:18;6.53;;;3.17;;
7410;SDS011;3747;48.628;9.058;2023-09-30T01:24:45;5.20;;;2.60;;
7410;SDS011;3747;48.628;9.058;2023-09-30T01:27:13;5.73;;;3.00;;
7410;SDS011;3747;48.628;9.058;2023-09-30T01:29:42;6.03;;;2.73;;
7410;SDS011;3747;48.628;9.058;2023-09-30T01:32:09;6.27;;;3.40;;
7410;SDS011;3747;48.628;9.058;2023-09-30T01:34:36;6.90;;;2.43;;
7410;SDS011;3747;48.628;9.058;2023-09-30T01:37:03;5.17;;;3.30;;
7410;SDS011;3747;48.628;9.058;2023-09-30T01:39:31;6.53;;;3.03;;
7410;SDS011;3747;48.628;9.058;2023-09-30T01:41:58;6.47;;;2.90;;
7410;SDS011;3747;48.628;9.058;2023-09-30T01:44:25;7.37;;;3.30;;
7410;SDS011;3747;48.628;9.058;2023-09-30T01:46:52;5.23;;;3.23;;
7410;SDS011;3747;48.628;9.058;2023-09-30T01:49:19;4.67;;;2.67;;
7410;SDS011;3747;48.628;9.058;2023-09-30T01:51:49;7.63;;;2.70;;
7410;SDS011;3747;48.628;9.058;2023-09-30T01:54:15;6.73;;;2.90;;
7410;SDS011;3747;48.628;9.058;2023-09-30T01:56:43;5.90;;;3.20;;
7410;SDS011;3747;48.628;9.058;2023-09-30T01:59:10;5.70;;;2.73;;
7410;SDS011;3747;48.628;9.058;2023-09-30T02:01:37;6.10;;;3.13;;
7410;SDS011;3747;48.628;9.058;2023-09-30T02:04:04;6.23;;;3.13;;
7410;SDS011;3747;48.628;9.058;2023-09-30T02:06:31;6.20;;;3.00;;
7410;SDS011;3747;48.628;9.058;2023-09-30T02:08:58;5.03;;;3.17;;
7410;SDS011;3747;48.628;9.058;2023-09-30T02:11:25;7.10;;;3.30;;
7410;SDS011;3747;48.628;9.058;2023-09-30T02:13:55;7.13;;;3.20;;
7410;SDS011;3747;48.628;9.058;2023-09-30T02:16:21;5.07;;;3.50;;
7410;SDS011;3747;48.628;9.058;2023-09-30T02:18:49;5.23;;;3.23;;
7410;SDS011;3747;48.628;9.058;2023-09-30T02:21:16;4.80;;;2.77;;
7410;SDS011;3747;48.628;9.058;2023-09-30T02:23:43;5.00;;;3.07;;
7410;SDS011;3747;48.628;9.058;2023-09-30T02:26:13;7.73;;;3.40;;
7410;SDS011;3747;48.628;9.058;2023-09-30T02:28:39;8.10;;;3.60;;
7410;SDS011;3747;48.628;9.058;2023-09-30T02:31:07;6.80;;;3.67;;
7410;SDS011;3747;48.628;9.058;2023-09-30T02:33:34;5.63;;;3.30;;
7410;SDS011;3747;48.628;9.058;2023-09-30T02:36:02;5.67;;;3.40;;
7410;SDS011;3747;48.628;9.058;2023-09-30T02:38:30;6.20;;;3.70;;
7410;SDS011;3747;48.628;9.058;2023-09-30T02:40:57;5.23;;;3.47;;
7410;SDS011;3747;48.628;9.058;2023-09-30T02:43:24;7.13;;;3.60;;
7410;SDS011;3747;48.628;9.058;2023-09-30T02:45:50;6.27;;;3.33;;
7410;SDS011;3747;48.628;9.058;2023-09-30T02:48:19;4.50;;;2.93;;
7410;SDS011;3747;48.628;9.058;2023-09-30T02:50:45;6.67;;;3.53;;
7410;SDS011;3747;48.628;9.058;2023-09-30T02:53:12;6.43;;;3.77;;
7410;SDS011;3747;48.628;9.058;2023-09-30T02:55:39;7.23;;;3.57;;
7410;SDS011;3747;48.628;9.058;2023-09-30T02:58:06;6.93;;;3.77;;
7410;SDS011;3747;48.628;9.058;2023-09-30T03:00:34;5.67;;;3.57;;
7410;SDS011;3747;48.628;9.058;2023-09-30T03:03:01;5.50;;;3.23;;
7410;SDS011;3747;48.628;9.058;2023-09-30T03:05:30;6.90;;;3.03;;
7410;SDS011;3747;48.628;9.058;2023-09-30T03:07:58;8.27;;;3.97;;
7410;SDS011;3747;48.628;9.058;2023-09-30T03:10:25;5.47;;;3.43;;
7410;SDS011;3747;48.628;9.058;2023-09-30T03:12:52;6.20;;;3.50;;
7410;SDS011;3747;48.628;9.058;2023-09-30T03:15:19;4.97;;;3.13;;
7410;SDS011;3747;48.628;9.058;2023-09-30T03:17:46;5.70;;;3.53;;
7410;SDS011;3747;48.628;9.058;2023-09-30T03:20:13;4.97;;;3.17;;
7410;SDS011;3747;48.628;9.058;2023-09-30T03:22:45;9.50;;;4.17;;
7410;SDS011;3747;48.628;9.058;2023-09-30T03:25:13;4.87;;;3.83;;
7410;SDS011;3747;48.628;9.058;2023-09-30T03:27:42;6.33;;;3.23;;
7410;SDS011;3747;48.628;9.058;2023-09-30T03:30:10;8.63;;;3.63;;
7410;SDS011;3747;48.628;9.058;2023-09-30T03:32:37;5.50;;;3.57;;
7410;SDS011;3747;48.628;9.058;2023-09-30T03:35:05;8.73;;;6.47;;
7410;SDS011;3747;48.628;9.058;2023-09-30T03:37:32;11.87;;;6.13;;
7410;SDS011;3747;48.628;9.058;2023-09-30T03:40:01;11.40;;;7.37;;
7410;SDS011;3747;48.628;9.058;2023-09-30T03:42:36;8.67;;;5.50;;
7410;SDS011;3747;48.628;9.058;2023-09-30T03:45:04;4.70;;;3.83;;
7410;SDS011;3747;48.628;9.058;2023-09-30T03:47:34;6.57;;;4.00;;
7410;SDS011;3747;48.628;9.058;2023-09-30T03:50:01;6.63;;;3.57;;
7410;SDS011;3747;48.628;9.058;2023-09-30T03:52:28;5.13;;;3.77;;
7410;SDS011;3747;48.628;9.058;2023-09-30T03:54:58;7.57;;;3.83;;
7410;SDS011;3747;48.628;9.058;2023-09-30T03:57:26;6.40;;;4.23;;
7410;SDS011;3747;48.628;9.058;2023-09-30T03:59:53;7.37;;;4.17;;
7410;SDS011;3747;48.628;9.058;2023-09-30T04:02:19;5.57;;;4.30;;
7410;SDS011;3747;48.628;9.058;2023-09-30T04:04:46;6.90;;;4.47;;
7410;SDS011;3747;48.628;9.058;2023-09-30T04:07:14;6.60;;;4.50;;
7410;SDS011;3747;48.628;9.058;2023-09-30T04:09:41;8.60;;;5.17;;
7410;SDS011;3747;48.628;9.058;2023-09-30T04:12:08;7.40;;;4.30;;
7410;SDS011;3747;48.628;9.058;2023-09-30T04:14:36;6.60;;;4.50;;
7410;SDS011;3747;48.628;9.058;2023-09-30T04:17:04;7.30;;;3.87;;
7410;SDS011;3747;48.628;9.058;2023-09-30T04:19:31;7.23;;;4.93;;
7410;SDS011;3747;48.628;9.058;2023-09-30T04:21:58;8.47;;;5.03;;
7410;SDS011;3747;48.628;9.058;2023-09-30T04:24:25;8.10;;;4.53;;
7410;SDS011;3747;48.628;9.058;2023-09-30T04:26:53;6.23;;;4.67;;
7410;SDS011;3747;48.628;9.058;2023-09-30T04:29:22;6.57;;;5.10;;
7410;SDS011;3747;48.628;9.058;2023-09-30T04:31:50;8.67;;;4.30;;
7410;SDS011;3747;48.628;9.058;2023-09-30T04:34:17;8.23;;;5.13;;
7410;SDS011;3747;48.628;9.058;2023-09-30T04:36:44;10.53;;;5.87;;
7410;SDS011;3747;48.628;9.058;2023-09-30T04:39:11;16.07;;;8.10;;
7410;SDS011;3747;48.628;9.058;2023-09-30T04:41:39;13.47;;;6.50;;
7410;SDS011;3747;48.628;9.058;2023-09-30T04:44:07;11.00;;;6.63;;
7410;SDS011;3747;48.628;9.058;2023-09-30T04:46:34;10.03;;;6.33;;
7410;SDS011;3747;48.628;9.058;2023-09-30T04:49:06;12.87;;;6.50;;
7410;SDS011;3747;48.628;9.058;2023-09-30T04:51:34;12.60;;;6.07;;
7410;SDS011;3747;48.628;9.058;2023-09-30T04:54:00;12.70;;;6.83;;
7410;SDS011;3747;48.628;9.058;2023-09-30T04:56:28;12.87;;;6.57;;
7410;SDS011;3747;48.628;9.058;2023-09-30T04:58:55;8.37;;;5.50;;
7410;SDS011;3747;48.628;9.058;2023-09-30T05:01:23;9.70;;;5.50;;
7410;SDS011;3747;48.628;9.058;2023-09-30T05:03:50;7.07;;;5.10;;
7410;SDS011;3747;48.628;9.058;2023-09-30T05:06:18;8.07;;;5.03;;
7410;SDS011;3747;48.628;9.058;2023-09-30T05:08:46;6.23;;;5.23;;
7410;SDS011;3747;48.628;9.058;2023-09-30T05:11:12;9.67;;;6.23;;
7410;SDS011;3747;48.628;9.058;2023-09-30T05:13:40;8.50;;;6.20;;
7410;SDS011;3747;48.628;9.058;2023-09-30T05:16:06;10.77;;;6.27;;
7410;SDS011;3747;48.628;9.058;2023-09-30T05:18:33;9.93;;;5.80;;
7410;SDS011;3747;48.628;9.058;2023-09-30T05:21:00;8.97;;;6.10;;
7410;SDS011;3747;48.628;9.058;2023-09-30T05:23:28;8.33;;;5.27;;
7410;SDS011;3747;48.628;9.058;2023-09-30T05:25:55;12.63;;;6.67;;
7410;SDS011;3747;48.628;9.058;2023-09-30T05:28:22;10.10;;;6.30;;
7410;SDS011;3747;48.628;9.058;2023-09-30T05:30:49;12.00;;;6.73;;
7410;SDS011;3747;48.628;9.058;2023-09-30T05:33:16;8.07;;;5.00;;
7410;SDS011;3747;48.628;9.058;2023-09-30T05:35:43;6.77;;;5.33;;
7410;SDS011;3747;48.628;9.058;2023-09-30T05:38:09;9.37;;;5.43;;
7410;SDS011;3747;48.628;9.058;2023-09-30T05:40:38;10.53;;;6.70;;
7410;SDS011;3747;48.628;9.058;2023-09-30T05:43:06;10.37;;;6.53;;
7410;SDS011;3747;48.628;9.058;2023-09-30T05:45:33;11.07;;;6.20;;
7410;SDS011;3747;48.628;9.058;2023-09-30T05:48:01;8.10;;;5.40;;
7410;SDS011;3747;48.628;9.058;2023-09-30T05:50:31;8.97;;;5.70;;
7410;SDS011;3747;48.628;9.058;2023-09-30T05:52:59;11.83;;;6.23;;
7410;SDS011;3747;48.628;9.058;2023-09-30T05:55:26;11.70;;;6.80;;
7410;SDS011;3747;48.628;9.058;2023-09-30T05:57:54;10.13;;;6.63;;
7410;SDS011;3747;48.628;9.058;2023-09-30T06:00:21;11.50;;;7.07;;
7410;SDS011;3747;48.628;9.058;2023-09-30T06:02:48;12.30;;;7.53;;
7410;SDS011;3747;48.628;9.058;2023-09-30T06:05:16;13.10;;;6.90;;
7410;SDS011;3747;48.628;9.058;2023-09-30T06:07:43;10.40;;;7.23;;
7410;SDS011;3747;48.628;9.058;2023-09-30T06:10:10;8.60;;;6.77;;
7410;SDS011;3747;48.628;9.058;2023-09-30T06:12:38;8.80;;;6.40;;
7410;SDS011;3747;48.628;9.058;2023-09-30T06:15:07;11.30;;;6.07;;
7410;SDS011;3747;48.628;9.058;2023-09-30T06:17:34;16.47;;;7.00;;
7410;SDS011;3747;48.628;9.058;2023-09-30T06:20:01;13.37;;;6.37;;
7410;SDS011;3747;48.628;9.058;2023-09-30T06:22:41;9.40;;;5.93;;
7410;SDS011;3747;48.628;9.058;2023-09-30T06:25:08;8.73;;;6.33;;
7410;SDS011;3747;48.628;9.058;2023-09-30T06:27:35;10.07;;;6.17;;
7410;SDS011;3747;48.628;9.058;2023-09-30T06:30:03;11.17;;;6.50;;
7410;SDS011;3747;48.628;9.058;2023-09-30T06:32:32;10.17;;;6.00;;
7410;SDS011;3747;48.628;9.058;2023-09-30T06:34:59;7.63;;;5.03;;
7410;SDS011;3747;48.628;9.058;2023-09-30T06:37:25;8.43;;;4.97;;
7410;SDS011;3747;48.628;9.058;2023-09-30T06:39:54;8.37;;;4.90;;
7410;SDS011;3747;48.628;9.058;2023-09-30T06:42:21;7.83;;;4.97;;
7410;SDS011;3747;48.628;9.058;2023-09-30T06:44:48;8.43;;;5.10;;
7410;SDS011;3747;48.628;9.058;2023-09-30T06:47:14;8.23;;;5.20;;
7410;SDS011;3747;48.628;9.058;2023-09-30T06:49:42;9.47;;;5.57;;
7410;SDS011;3747;48.628;9.058;2023-09-30T06:52:10;9.17;;;5.10;;
7410;SDS011;3747;48.628;9.058;2023-09-30T06:54:36;6.33;;;4.73;;
7410;SDS011;3747;48.628;9.058;2023-09-30T06:57:03;7.20;;;4.87;;
7410;SDS011;3747;48.628;9.058;2023-09-30T06:59:31;6.50;;;4.53;;
7410;SDS011;3747;48.628;9.058;2023-09-30T07:01:58;6.63;;;4.57;;
7410;SDS011;3747;48.628;9.058;2023-09-30T07:04:25;6.73;;;4.70;;
7410;SDS011;3747;48.628;9.058;2023-09-30T07:06:53;8.77;;;4.90;;
7410;SDS011;3747;48.628;9.058;2023-09-30T07:09:20;8.40;;;4.93;;
7410;SDS011;3747;48.628;9.058;2023-09-30T07:11:46;7.07;;;4.50;;
7410;SDS011;3747;48.628;9.058;2023-09-30T07:14:14;7.53;;;5.07;;
7410;SDS011;3747;48.628;9.058;2023-09-30T07:16:41;10.03;;;5.17;;
7410;SDS011;3747;48.628;9.058;2023-09-30T07:19:08;8.13;;;5.13;;
7410;SDS011;3747;48.628;9.058;2023-09-30T07:21:34;12.23;;;5.77;;
7410;SDS011;3747;48.628;9.058;2023-09-30T07:24:15;6.93;;;5.07;;
7410;SDS011;3747;48.628;9.058;2023-09-30T07:26:41;7.23;;;4.97;;
7410;SDS011;3747;48.628;9.058;2023-09-30T07:29:08;6.57;;;5.20;;
7410;SDS011;3747;48.628;9.058;2023-09-30T07:31:35;8.50;;;4.97;;
7410;SDS011;3747;48.628;9.058;2023-09-30T07:34:03;5.77;;;4.93;;
7410;SDS011;3747;48.628;9.058;2023-09-30T07:36:29;7.27;;;5.53;;
7410;SDS011;3747;48.628;9.058;2023-09-30T07:38:56;9.67;;;4.97;;
7410;SDS011;3747;48.628;9.058;2023-09-30T07:41:25;9.23;;;5.37;;
7410;SDS011;3747;48.628;9.058;2023-09-30T07:43:51;8.63;;;5.80;;
7410;SDS011;3747;48.628;9.058;2023-09-30T07:46:18;10.10;;;5.53;;
7410;SDS011;3747;48.628;9.058;2023-09-30T07:48:44;8.10;;;5.37;;
7410;SDS011;3747;48.628;9.058;2023-09-30T07:51:11;8.63;;;5.43;;
7410;SDS011;3747;48.628;9.058;2023-09-30T07:56:09;10.37;;;5.77;;
7410;SDS011;3747;48.628;9.058;2023-09-30T07:58:38;6.10;;;4.90;;
7410;SDS011;3747;48.628;9.058;2023-09-30T08:01:04;6.30;;;4.80;;
7410;SDS011;3747;48.628;9.058;2023-09-30T08:03:31;7.03;;;4.43;;
7410;SDS011;3747;48.628;9.058;2023-09-30T08:05:59;7.57;;;4.40;;
7410;SDS011;3747;48.628;9.058;2023-09-30T08:08:25;6.03;;;4.00;;
7410;SDS011;3747;48.628;9.058;2023-09-30T08:10:52;5.27;;;3.87;;
7410;SDS011;3747;48.628;9.058;2023-09-30T08:13:20;5.27;;;4.47;;
7410;SDS011;3747;48.628;9.058;2023-09-30T08:15:48;7.63;;;4.70;;
7410;SDS011;3747;48.628;9.058;2023-09-30T08:18:15;8.07;;;4.77;;
7410;SDS011;3747;48.628;9.058;2023-09-30T08:20:42;5.20;;;4.27;;
7410;SDS011;3747;48.628;9.058;2023-09-30T08:23:09;6.03;;;4.17;;
7410;SDS011;3747;48.628;9.058;2023-09-30T08:25:36;7.37;;;4.27;;
7410;SDS011;3747;48.628;9.058;2023-09-30T08:28:03;6.33;;;4.00;;
7410;SDS011;3747;48.628;9.058;2023-09-30T08:30:32;8.80;;;4.57;;
7410;SDS011;3747;48.628;9.058;2023-09-30T08:33:00;10.10;;;4.50;;
7410;SDS011;3747;48.628;9.058;2023-09-30T08:35:28;5.97;;;3.63;;
7410;SDS011;3747;48.628;9.058;2023-09-30T08:37:55;6.40;;;4.23;;
7410;SDS011;3747;48.628;9.058;2023-09-30T08:40:23;6.17;;;3.80;;
7410;SDS011;3747;48.628;9.058;2023-09-30T08:42:51;5.07;;;3.87;;
7410;SDS011;3747;48.628;9.058;2023-09-30T08:45:18;5.30;;;3.93;;
7410;SDS011;3747;48.628;9.058;2023-09-30T08:47:45;6.60;;;4.30;;
7410;SDS011;3747;48.628;9.058;2023-09-30T08:50:15;4.63;;;3.77;;
7410;SDS011;3747;48.628;9.058;2023-09-30T08:52:43;6.83;;;4.37;;
7410;SDS011;3747;48.628;9.058;2023-09-30T08:55:10;5.93;;;3.70;;
7410;SDS011;3747;48.628;9.058;2023-09-30T08:57:41;5.47;;;4.10;;
7410;SDS011;3747;48.628;9.058;2023-09-30T09:00:09;6.00;;;3.93;;
7410;SDS011;3747;48.628;9.058;2023-09-30T09:02:37;5.77;;;3.80;;
7410;SDS011;3747;48.628;9.058;2023-09-30T09:05:05;5.23;;;4.50;;
7410;SDS011;3747;48.628;9.058;2023-09-30T09:07:33;7.33;;;4.87;;
7410;SDS011;3747;48.628;9.058;2023-09-30T09:10:04;6.03;;;3.97;;
7410;SDS011;3747;48.628;9.058;2023-09-30T09:12:33;4.67;;;4.00;;
7410;SDS011;3747;48.628;9.058;2023-09-30T09:15:00;6.17;;;4.07;;
7410;SDS011;3747;48.628;9.058;2023-09-30T09:17:40;8.87;;;4.63;;
7410;SDS011;3747;48.628;9.058;2023-09-30T09:20:08;5.27;;;4.07;;
7410;SDS011;3747;48.628;9.058;2023-09-30T09:22:41;4.83;;;3.73;;
7410;SDS011;3747;48.628;9.058;2023-09-30T09:25:09;4.77;;;3.47;;
7410;SDS011;3747;48.628;9.058;2023-09-30T09:27:36;5.53;;;4.10;;
7410;SDS011;3747;48.628;9.058;2023-09-30T09:30:13;4.37;;;3.57;;
7410;SDS011;3747;48.628;9.058;2023-09-30T09:32:53;5.60;;;3.80;;
7410;SDS011;3747;48.628;9.058;2023-09-30T09:35:24;9.63;;;4.60;;
7410;SDS011;3747;48.628;9.058;2023-09-30T09:37:55;6.07;;;4.17;;
7410;SDS011;3747;48.628;9.058;2023-09-30T09:40:26;9.63;;;4.27;;
7410;SDS011;3747;48.628;9.058;2023-09-30T09:42:54;5.73;;;3.60;;
7410;SDS011;3747;48.628;9.058;2023-09-30T09:45:21;4.87;;;3.80;;
7410;SDS011;3747;48.628;9.058;2023-09-30T09:47:49;7.60;;;4.40;;
7410;SDS011;3747;48.628;9.058;2023-09-30T09:50:17;7.03;;;4.03;;
7410;SDS011;3747;48.628;9.058;2023-09-30T09:52:46;7.80;;;3.97;;
7410;SDS011;3747;48.628;9.058;2023-09-30T09:55:17;6.37;;;3.93;;
7410;SDS011;3747;48.628;9.058;2023-09-30T09:57:44;8.67;;;4.87;;
7410;SDS011;3747;48.628;9.058;2023-09-30T10:00:12;6.27;;;4.37;;
7410;SDS011;3747;48.628;9.058;2023-09-30T10:02:41;5.77;;;4.20;;
7410;SDS011;3747;48.628;9.058;2023-09-30T10:05:08;6.07;;;4.13;;
7410;SDS011;3747;48.628;9.058;2023-09-30T10:07:37;5.83;;;4.10;;
7410;SDS011;3747;48.628;9.058;2023-09-30T10:10:09;6.43;;;4.20;;
7410;SDS011;3747;48.628;9.058;2023-09-30T10:12:41;7.13;;;4.57;;
7410;SDS011;3747;48.628;9.058;2023-09-30T10:18:06;6.70;;;4.40;;
7410;SDS011;3747;48.628;9.058;2023-09-30T10:20:35;7.87;;;4.83;;
7410;SDS011;3747;48.628;9.058;2023-09-30T10:23:18;5.67;;;4.20;;
7410;SDS011;3747;48.628;9.058;2023-09-30T10:25:46;12.93;;;5.33;;
7410;SDS011;3747;48.628;9.058;2023-09-30T10:28:33;6.93;;;4.83;;
7410;SDS011;3747;48.628;9.058;2023-09-30T10:31:10;7.77;;;4.73;;
7410;SDS011;3747;48.628;9.058;2023-09-30T10:36:57;8.30;;;4.77;;
7410;SDS011;3747;48.628;9.058;2023-09-30T10:51:09;7.80;;;4.87;;
7410;SDS011;3747;48.628;9.058;2023-09-30T10:53:41;8.97;;;5.50;;
7410;SDS011;3747;48.628;9.058;2023-09-30T10:56:10;10.27;;;5.43;;
7410;SDS011;3747;48.628;9.058;2023-09-30T10:58:40;7.63;;;5.17;;
7410;SDS011;3747;48.628;9.058;2023-09-30T11:01:09;8.50;;;5.20;;
7410;SDS011;3747;48.628;9.058;2023-09-30T11:03:38;9.87;;;5.67;;
7410;SDS011;3747;48.628;9.058;2023-09-30T11:06:05;12.37;;;5.90;;
7410;SDS011;3747;48.628;9.058;2023-09-30T11:08:32;8.30;;;5.10;;
7410;SDS011;3747;48.628;9.058;2023-09-30T11:11:00;9.50;;;5.40;;
7410;SDS011;3747;48.628;9.058;2023-09-30T11:13:31;10.40;;;5.60;;
7410;SDS011;3747;48.628;9.058;2023-09-30T11:15:59;10.47;;;5.87;;
7410;SDS011;3747;48.628;9.058;2023-09-30T11:18:28;8.17;;;5.53;;
7410;SDS011;3747;48.628;9.058;2023-09-30T11:21:03;7.37;;;5.40;;
7410;SDS011;3747;48.628;9.058;2023-09-30T11:23:31;9.10;;;5.37;;
7410;SDS011;3747;48.628;9.058;2023-09-30T11:25:59;8.13;;;5.10;;
7410;SDS011;3747;48.628;9.058;2023-09-30T11:28:34;8.23;;;5.17;;
7410;SDS011;3747;48.628;9.058;2023-09-30T11:31:02;8.57;;;5.40;;
7410;SDS011;3747;48.628;9.058;2023-09-30T11:33:30;9.60;;;5.30;;
7410;SDS011;3747;48.628;9.058;2023-09-30T11:35:59;8.57;;;5.13;;
7410;SDS011;3747;48.628;9.058;2023-09-30T11:38:27;7.50;;;5.10;;
7410;SDS011;3747;48.628;9.058;2023-09-30T11:40:57;10.63;;;5.33;;
7410;SDS011;3747;48.628;9.058;2023-09-30T11:43:26;7.40;;;5.10;;
7410;SDS011;3747;48.628;9.058;2023-09-30T11:45:52;10.67;;;5.50;;
7410;SDS011;3747;48.628;9.058;2023-09-30T11:48:30;6.40;;;4.90;;
7410;SDS011;3747;48.628;9.058;2023-09-30T11:50:58;7.43;;;5.17;;
7410;SDS011;3747;48.628;9.058;2023-09-30T11:53:28;8.03;;;5.23;;
7410;SDS011;3747;48.628;9.058;2023-09-30T11:55:55;8.67;;;5.07;;
7410;SDS011;3747;48.628;9.058;2023-09-30T11:58:23;7.70;;;5.20;;
7410;SDS011;3747;48.628;9.058;2023-09-30T12:00:53;9.60;;;5.77;;
7410;SDS011;3747;48.628;9.058;2023-09-30T12:03:20;9.80;;;5.57;;
7410;SDS011;3747;48.628;9.058;2023-09-30T12:05:48;9.30;;;5.67;;
7410;SDS011;3747;48.628;9.058;2023-09-30T12:08:16;9.63;;;5.07;;
7410;SDS011;3747;48.628;9.058;2023-09-30T12:10:44;9.47;;;5.97;;
7410;SDS011;3747;48.628;9.058;2023-09-30T12:13:10;9.80;;;5.47;;
7410;SDS011;3747;48.628;9.058;2023-09-30T12:15:37;9.23;;;5.50;;
7410;SDS011;3747;48.628;9.058;2023-09-30T12:18:05;10.03;;;6.70;;
7410;SDS011;3747;48.628;9.058;2023-09-30T12:20:32;12.03;;;5.77;;
7410;SDS011;3747;48.628;9.058;2023-09-30T12:23:01;11.03;;;6.53;;
7410;SDS011;3747;48.628;9.058;2023-09-30T12:25:30;8.77;;;5.73;;
7410;SDS011;3747;48.628;9.058;2023-09-30T12:27:58;11.03;;;5.63;;
7410;SDS011;3747;48.628;9.058;2023-09-30T12:30:25;9.77;;;5.70;;
7410;SDS011;3747;48.628;9.058;2023-09-30T12:32:52;11.47;;;6.10;;
7410;SDS011;3747;48.628;9.058;2023-09-30T12:35:30;8.90;;;5.90;;
7410;SDS011;3747;48.628;9.058;2023-09-30T12:37:57;9.50;;;5.40;;
7410;SDS011;3747;48.628;9.058;2023-09-30T12:40:25;10.03;;;5.67;;
7410;SDS011;3747;48.628;9.058;2023-09-30T12:42:53;11.83;;;6.17;;
7410;SDS011;3747;48.628;9.058;2023-09-30T12:45:19;10.60;;;6.10;;
7410;SDS011;3747;48.628;9.058;2023-09-30T12:47:46;8.50;;;5.73;;
7410;SDS011;3747;48.628;9.058;2023-09-30T12:50:13;8.20;;;5.40;;
7410;SDS011;3747;48.628;9.058;2023-09-30T12:52:40;9.87;;;5.80;;
7410;SDS011;3747;48.628;9.058;2023-09-30T12:55:06;9.70;;;6.30;;
7410;SDS011;3747;48.628;9.058;2023-09-30T12:57:36;9.17;;;5.77;;
7410;SDS011;3747;48.628;9.058;2023-09-30T13:00:03;7.80;;;5.13;;
7410;SDS011;3747;48.628;9.058;2023-09-30T13:02:34;8.67;;;5.40;;
7410;SDS011;3747;48.628;9.058;2023-09-30T13:05:00;10.33;;;6.23;;
7410;SDS011;3747;48.628;9.058;2023-09-30T13:07:27;7.87;;;5.00;;
7410;SDS011;3747;48.628;9.058;2023-09-30T13:09:54;11.93;;;5.40;;
7410;SDS011;3747;48.628;9.058;2023-09-30T13:12:21;8.23;;;5.03;;
7410;SDS011;3747;48.628;9.058;2023-09-30T13:14:57;9.07;;;4.90;;
7410;SDS011;3747;48.628;9.058;2023-09-30T13:17:24;9.40;;;5.57;;
7410;SDS011;3747;48.628;9.058;2023-09-30T13:19:50;8.90;;;5.67;;
7410;SDS011;3747;48.628;9.058;2023-09-30T13:22:26;10.63;;;5.77;;
7410;SDS011;3747;48.628;9.058;2023-09-30T13:24:53;8.90;;;5.43;;
7410;SDS011;3747;48.628;9.058;2023-09-30T13:27:27;7.83;;;5.03;;
7410;SDS011;3747;48.628;9.058;2023-09-30T13:29:54;10.80;;;5.60;;
7410;SDS011;3747;48.628;9.058;2023-09-30T13:32:23;7.17;;;5.70;;
7410;SDS011;3747;48.628;9.058;2023-09-30T13:34:50;8.10;;;5.60;;
7410;SDS011;3747;48.628;9.058;2023-09-30T13:37:17;10.03;;;5.70;;
7410;SDS011;3747;48.628;9.058;2023-09-30T13:39:50;8.77;;;5.13;;
7410;SDS011;3747;48.628;9.058;2023-09-30T13:42:17;7.90;;;4.90;;
7410;SDS011;3747;48.628;9.058;2023-09-30T13:44:44;7.30;;;5.37;;
7410;SDS011;3747;48.628;9.058;2023-09-30T13:47:10;7.20;;;4.67;;
7410;SDS011;3747;48.628;9.058;2023-09-30T13:49:38;7.93;;;4.90;;
7410;SDS011;3747;48.628;9.058;2023-09-30T13:52:05;8.43;;;5.37;;
7410;SDS011;3747;48.628;9.058;2023-09-30T13:54:31;9.70;;;6.20;;
7410;SDS011;3747;48.628;9.058;2023-09-30T13:56:58;8.93;;;5.27;;
7410;SDS011;3747;48.628;9.058;2023-09-30T13:59:25;8.40;;;5.63;;
7410;SDS011;3747;48.628;9.058;2023-09-30T14:01:52;9.10;;;5.17;;
7410;SDS011;3747;48.628;9.058;2023-09-30T14:04:19;9.10;;;5.13;;
7410;SDS011;3747;48.628;9.058;2023-09-30T14:06:53;8.30;;;5.33;;
7410;SDS011;3747;48.628;9.058;2023-09-30T14:09:21;8.53;;;5.07;;
7410;SDS011;3747;48.628;9.058;2023-09-30T14:11:48;9.67;;;5.40;;
7410;SDS011;3747;48.628;9.058;2023-09-30T14:14:14;8.73;;;5.43;;
7410;SDS011;3747;48.628;9.058;2023-09-30T14:16:41;6.97;;;4.80;;
7410;SDS011;3747;48.628;9.058;2023-09-30T14:19:08;8.27;;;4.93;;
7410;SDS011;3747;48.628;9.058;2023-09-30T14:21:34;8.87;;;5.33;;
7410;SDS011;3747;48.628;9.058;2023-09-30T14:24:02;7.30;;;4.57;;
7410;SDS011;3747;48.628;9.058;2023-09-30T14:26:29;6.37;;;4.47;;
7410;SDS011;3747;48.628;9.058;2023-09-30T14:28:57;7.90;;;4.87;;
7410;SDS011;3747;48.628;9.058;2023-09-30T14:31:23;9.20;;;5.13;;
7410;SDS011;3747;48.628;9.058;2023-09-30T14:33:50;7.60;;;4.87;;
7410;SDS011;3747;48.628;9.058;2023-09-30T14:36:17;8.70;;;5.00;;
7410;SDS011;3747;48.628;9.058;2023-09-30T14:38:44;8.10;;;4.80;;
7410;SDS011;3747;48.628;9.058;2023-09-30T14:41:12;9.07;;;4.90;;
7410;SDS011;3747;48.628;9.058;2023-09-30T14:43:39;8.53;;;4.83;;
7410;SDS011;3747;48.628;9.058;2023-09-30T14:46:06;8.27;;;5.10;;
7410;SDS011;3747;48.628;9.058;2023-09-30T14:48:33;6.77;;;4.97;;
7410;SDS011;3747;48.628;9.058;2023-09-30T14:51:00;6.60;;;4.33;;
7410;SDS011;3747;48.628;9.058;2023-09-30T14:53:30;8.47;;;4.90;;
7410;SDS011;3747;48.628;9.058;2023-09-30T14:55:57;6.77;;;4.03;;
7410;SDS011;3747;48.628;9.058;2023-09-30T14:58:25;8.57;;;4.83;;
7410;SDS011;3747;48.628;9.058;2023-09-30T15:00:52;8.43;;;4.83;;
7410;SDS011;3747;48.628;9.058;2023-09-30T15:03:19;6.90;;;4.70;;
7410;SDS011;3747;48.628;9.058;2023-09-30T15:05:46;6.23;;;4.67;;
7410;SDS011;3747;48.628;9.058;2023-09-30T15:08:14;6.40;;;4.13;;
7410;SDS011;3747;48.628;9.058;2023-09-30T15:10:41;7.67;;;5.10;;
7410;SDS011;3747;48.628;9.058;2023-09-30T15:13:09;6.23;;;3.90;;
7410;SDS011;3747;48.628;9.058;2023-09-30T15:15:37;9.97;;;4.97;;
7410;SDS011;3747;48.628;9.058;2023-09-30T15:18:03;14.77;;;5.50;;
7410;SDS011;3747;48.628;9.058;2023-09-30T15:20:30;8.87;;;4.90;;
7410;SDS011;3747;48.628;9.058;2023-09-30T15:23:03;8.70;;;4.67;;
7410;SDS011;3747;48.628;9.058;2023-09-30T15:25:30;10.43;;;5.03;;
7410;SDS011;3747;48.628;9.058;2023-09-30T15:27:57;7.37;;;4.57;;
7410;SDS011;3747;48.628;9.058;2023-09-30T15:30:23;7.37;;;4.30;;
7410;SDS011;3747;48.628;9.058;2023-09-30T15:32:51;7.23;;;4.73;;
7410;SDS011;3747;48.628;9.058;2023-09-30T15:35:19;6.60;;;4.03;;
7410;SDS011;3747;48.628;9.058;2023-09-30T15:37:45;8.97;;;4.70;;